Aérodrome :
LOGIN :

S'inscrire | Disclaimer

   EN    FR    IT 

 










Légende :    VFR   VFR Marginal   IFR   IFR Intensif   IFR Très Intensif
Visi : 
Plafond : 
>= 8 km
>= 3000ft
5 à 8 km
1000 à 3000 ft
1500m à 5 km
500 à 1000 ft
800 à 1500m
200 à 500 ft
< 800m
< 200 ft
Symboles :   Orages  Brouillard  Fortes neiges  Fortes précipitations  Vent > 20 kt
SIGMETs :   Divers  Orages  Givrage  Turbulence  Onde Orograph.  Cendres Volcan.






- Altitude de l'aérodrome : 1521 ft
- Code IATA : NCY


LFLP - Annecy

DERNIER METAR :
  • 110800Z AUTO 00000KT CAVOK M00/M01 Q1016 NOSIG

METARs EXPIRÉS :
  • 110730Z AUTO VRB02KT CAVOK M00/M01 Q1017 NOSIG
  • 110700Z AUTO VRB02KT CAVOK M01/M02 Q1017 NOSIG
  • 110630Z AUTO 19001KT CAVOK M01/M02 Q1017 NOSIG
  • 110600Z AUTO VRB01KT CAVOK M01/M02 Q1017 NOSIG
  • 110530Z AUTO 00000KT CAVOK M01/M02 Q1018 NOSIG

TAF TAF LFLP
Valide du 11 à 03h jusqu'au 12 à 03h UTC


110200Z 1103/1203 VRB02KT CAVOK
BECMG 1112/1114 20005KT -RA OVC030
TEMPO 1115/1119 4000 RA BKN015
BECMG 1119/1121 VRB03KT NSW SCT020
TEMPO 1201/1203 -SHRA BKN012



MET'MAP, la Météo Aéronautique d'un coup d'oeil ! - Copyright ORBIFLY Décembre 2007 - Disclaimer

ORBIFLY MET'MAP TEAM :

Programmation & Développement : Alexandra Zaïnal
Sur une idée originale de : Baudouin d'Aumeries
Assistance à la programmation : Marc-Olivier Méhu
Soutien technique & logistique : Manuel Goepfert

Contact : metmap@orbifly.com




SOURCES & CREDITS :

   NOAA